createdAt,value
2018-08-23T00:00:34.177Z,9.27
2018-08-23T00:03:02.754Z,8.83
2018-08-23T00:05:33.507Z,8.57
2018-08-23T00:08:07.951Z,8.63
2018-08-23T00:10:36.607Z,8.77
2018-08-23T00:13:06.609Z,8.53
2018-08-23T00:15:35.127Z,9.00
2018-08-23T00:18:03.622Z,8.77
2018-08-23T00:20:32.103Z,8.63
2018-08-23T00:23:00.676Z,8.40
2018-08-23T00:25:29.091Z,8.63
2018-08-23T00:27:57.469Z,10.13
2018-08-23T00:30:28.812Z,7.73
2018-08-23T00:32:58.044Z,8.93
2018-08-23T00:35:26.555Z,8.13
2018-08-23T00:37:59.477Z,8.43
2018-08-23T00:40:27.941Z,8.70
2018-08-23T00:43:02.994Z,8.60
2018-08-23T00:45:31.373Z,8.70
2018-08-23T00:47:59.817Z,9.20
2018-08-23T00:51:03.533Z,8.40
2018-08-23T00:53:33.216Z,8.30
2018-08-23T00:56:17.520Z,9.63
2018-08-23T00:58:51.265Z,8.30
2018-08-23T01:01:19.713Z,9.30
2018-08-23T01:03:48.239Z,10.03
2018-08-23T01:06:20.431Z,9.83
2018-08-23T01:08:48.899Z,10.70
2018-08-23T01:11:23.888Z,8.67
2018-08-23T01:13:52.256Z,9.60
2018-08-23T01:16:20.668Z,8.63
2018-08-23T01:18:49.047Z,9.40
2018-08-23T01:21:17.386Z,9.80
2018-08-23T01:23:45.754Z,8.83
2018-08-23T01:26:14.184Z,11.90
2018-08-23T01:28:42.773Z,8.90
2018-08-23T01:31:24.374Z,9.73
2018-08-23T01:33:54.889Z,10.20
2018-08-23T01:36:31.562Z,9.70
2018-08-23T01:39:04.909Z,9.40
2018-08-23T01:41:34.688Z,9.70
2018-08-23T01:44:03.234Z,9.73
2018-08-23T01:46:35.832Z,9.67
2018-08-23T01:49:05.848Z,12.13
2018-08-23T01:51:34.704Z,8.90
2018-08-23T01:54:03.663Z,8.90
2018-08-23T01:56:32.163Z,9.20
2018-08-23T01:59:00.862Z,12.00
2018-08-23T02:01:29.358Z,8.23
2018-08-23T02:03:57.723Z,9.37
2018-08-23T02:06:31.435Z,9.13
2018-08-23T02:08:59.870Z,12.77
2018-08-23T02:11:28.507Z,8.90
2018-08-23T02:13:57.129Z,9.37
2018-08-23T02:16:25.675Z,10.17
2018-08-23T02:18:54.496Z,9.00
2018-08-23T02:21:22.920Z,9.40
2018-08-23T02:23:52.698Z,8.07
2018-08-23T02:26:21.095Z,8.43
2018-08-23T02:28:50.305Z,8.53
2018-08-23T02:31:18.772Z,7.87
2018-08-23T02:33:47.170Z,8.57
2018-08-23T02:36:16.532Z,8.73
2018-08-23T02:38:46.136Z,9.30
2018-08-23T02:41:15.138Z,9.30
2018-08-23T02:43:44.216Z,9.30
2018-08-23T02:46:12.745Z,12.80
2018-08-23T02:48:41.247Z,9.00
2018-08-23T02:51:09.791Z,10.30
2018-08-23T02:53:41.590Z,11.90
2018-08-23T02:56:12.927Z,10.70
2018-08-23T02:58:53.896Z,9.30
2018-08-23T03:01:22.270Z,10.20
2018-08-23T03:04:02.438Z,9.13
2018-08-23T03:06:36.267Z,9.53
2018-08-23T03:09:06.013Z,9.07
2018-08-23T03:11:36.356Z,10.23
2018-08-23T03:14:05.076Z,9.27
2018-08-23T03:16:46.159Z,10.47
2018-08-23T03:19:14.835Z,11.30
2018-08-23T03:21:43.268Z,10.27
2018-08-23T03:24:11.957Z,9.23
2018-08-23T03:26:40.546Z,10.00
2018-08-23T03:29:09.369Z,9.17
2018-08-23T03:31:37.849Z,10.80
2018-08-23T03:34:06.385Z,10.70
2018-08-23T03:36:34.714Z,9.50
2018-08-23T03:39:03.209Z,23.57
2018-08-23T03:41:31.616Z,10.83
2018-08-23T03:43:59.992Z,10.67
2018-08-23T03:46:28.495Z,11.93
2018-08-23T03:49:01.132Z,9.60
2018-08-23T03:51:29.970Z,10.07
2018-08-23T03:54:00.470Z,9.43
2018-08-23T03:56:28.957Z,9.60
2018-08-23T03:58:58.676Z,9.77
2018-08-23T04:01:27.095Z,11.37
2018-08-23T04:03:55.549Z,14.93
2018-08-23T04:06:32.282Z,9.53
2018-08-23T04:09:00.680Z,8.83
2018-08-23T04:11:29.046Z,11.43
2018-08-23T04:13:58.040Z,9.17
2018-08-23T04:16:28.973Z,9.40
2018-08-23T04:18:57.746Z,10.83
2018-08-23T04:21:26.875Z,11.30
2018-08-23T04:23:55.752Z,12.17
2018-08-23T04:26:24.977Z,9.27
2018-08-23T04:28:53.829Z,9.30
2018-08-23T04:31:22.508Z,9.63
2018-08-23T04:33:51.135Z,10.30
2018-08-23T04:36:29.915Z,9.63
2018-08-23T04:39:01.718Z,10.63
2018-08-23T04:41:32.298Z,16.53
2018-08-23T04:44:07.133Z,11.63
2018-08-23T04:46:36.585Z,14.80
2018-08-23T04:49:07.049Z,8.50
2018-08-23T04:51:36.401Z,12.63
2018-08-23T04:54:04.933Z,13.30
2018-08-23T04:56:33.441Z,15.27
2018-08-23T04:59:20.925Z,11.00
2018-08-23T05:02:03.383Z,10.50
2018-08-23T05:04:44.552Z,24.83
2018-08-23T05:14:11.443Z,17.00
2018-08-23T05:16:59.879Z,10.93
2018-08-23T05:19:46.192Z,11.40
2018-08-23T05:22:39.243Z,12.70
2018-08-23T05:25:19.017Z,12.00
2018-08-23T05:28:05.818Z,12.63
2018-08-23T05:30:46.069Z,16.27
2018-08-23T05:33:27.443Z,14.40
2018-08-23T05:35:58.167Z,11.73
2018-08-23T05:38:30.450Z,17.53
2018-08-23T05:41:06.567Z,13.10
2018-08-23T05:43:35.063Z,18.00
2018-08-23T05:46:05.402Z,16.53
2018-08-23T05:48:35.087Z,15.20
2018-08-23T05:51:07.719Z,11.67
2018-08-23T05:53:55.061Z,17.60
2018-08-23T05:56:25.029Z,12.67
2018-08-23T05:59:00.685Z,12.10
2018-08-23T06:01:30.873Z,10.60
2018-08-23T06:04:03.484Z,18.23
2018-08-23T06:06:35.374Z,12.90
2018-08-23T06:09:07.795Z,11.90
2018-08-23T06:11:45.274Z,16.57
2018-08-23T06:14:29.473Z,13.07
2018-08-23T06:17:05.101Z,15.90
2018-08-23T06:19:34.524Z,12.87
2018-08-23T06:22:04.882Z,10.00
2018-08-23T06:24:35.714Z,12.40
2018-08-23T06:27:09.056Z,12.70
2018-08-23T06:29:37.503Z,16.27
2018-08-23T06:32:09.324Z,13.77
2018-08-23T06:34:51.696Z,13.23
2018-08-23T06:37:22.316Z,14.20
2018-08-23T06:39:53.803Z,20.20
2018-08-23T06:42:36.333Z,18.43
2018-08-23T06:45:07.249Z,19.67
2018-08-23T06:47:37.910Z,22.60
2018-08-23T06:50:08.622Z,21.57
2018-08-23T06:52:43.281Z,20.10
2018-08-23T06:55:14.988Z,23.07
2018-08-23T06:57:51.748Z,18.47
2018-08-23T07:00:26.470Z,20.70
2018-08-23T07:03:00.772Z,19.40
2018-08-23T07:05:31.329Z,19.23
2018-08-23T07:08:02.092Z,25.43
2018-08-23T07:10:31.092Z,21.03
2018-08-23T07:13:02.656Z,19.60
2018-08-23T07:15:36.460Z,21.37
2018-08-23T07:18:09.210Z,21.90
2018-08-23T07:20:44.210Z,19.23
2018-08-23T07:26:01.023Z,21.40
2018-08-23T07:28:32.184Z,22.63
2018-08-23T07:31:01.258Z,23.20
2018-08-23T07:33:32.853Z,19.90
2018-08-23T07:39:01.850Z,18.77
2018-08-23T07:41:31.928Z,18.13
2018-08-23T07:44:09.948Z,18.00
2018-08-23T07:46:43.844Z,18.57
2018-08-23T07:49:14.643Z,19.00
2018-08-23T07:51:43.039Z,17.33
2018-08-23T07:54:18.542Z,16.00
2018-08-23T07:56:47.969Z,16.00
2018-08-23T07:59:17.375Z,15.60
2018-08-23T08:01:47.404Z,14.70
2018-08-23T08:04:16.194Z,16.40
2018-08-23T08:06:47.343Z,14.83
2018-08-23T08:09:25.380Z,14.50
2018-08-23T08:11:58.916Z,14.77
2018-08-23T08:14:33.082Z,14.50
2018-08-23T08:17:13.424Z,13.80
2018-08-23T08:19:46.175Z,13.97
2018-08-23T08:22:14.541Z,14.50
2018-08-23T08:24:45.133Z,15.83
2018-08-23T08:27:13.717Z,13.40
2018-08-23T08:29:44.327Z,15.20
2018-08-23T08:32:22.027Z,14.77
2018-08-23T08:34:53.806Z,17.60
2018-08-23T08:37:25.363Z,17.10
2018-08-23T08:39:54.373Z,16.90
2018-08-23T08:42:33.156Z,15.40
2018-08-23T08:45:14.405Z,16.80
2018-08-23T08:47:46.513Z,19.00
2018-08-23T08:50:16.876Z,15.57
2018-08-23T08:52:45.346Z,17.40
2018-08-23T08:55:15.470Z,16.37
2018-08-23T08:57:45.421Z,19.77
2018-08-23T09:00:13.957Z,17.60
2018-08-23T09:02:42.613Z,17.17
2018-08-23T09:05:12.179Z,16.07
2018-08-23T09:07:43.485Z,15.27
2018-08-23T09:10:11.968Z,17.07
2018-08-23T09:12:45.582Z,18.60
2018-08-23T09:15:14.475Z,18.23
2018-08-23T09:17:44.924Z,17.83
2018-08-23T09:20:19.328Z,16.73
2018-08-23T09:22:52.788Z,18.70
2018-08-23T09:25:27.827Z,21.27
2018-08-23T09:28:00.036Z,21.30
2018-08-23T09:30:30.465Z,21.57
2018-08-23T09:33:03.777Z,20.97
2018-08-23T09:35:33.338Z,19.70
2018-08-23T09:38:09.724Z,19.23
2018-08-23T09:40:38.124Z,18.37
2018-08-23T09:43:07.440Z,19.30
2018-08-23T09:45:37.572Z,19.83
2018-08-23T09:48:06.342Z,17.43
2018-08-23T09:50:34.760Z,18.10
2018-08-23T09:53:08.701Z,16.43
2018-08-23T09:55:37.134Z,16.53
2018-08-23T09:58:05.613Z,17.87
2018-08-23T10:00:40.090Z,19.30
2018-08-23T10:03:13.709Z,16.73
2018-08-23T10:05:47.540Z,16.03
2018-08-23T10:08:22.234Z,18.40
2018-08-23T10:10:56.185Z,16.50
2018-08-23T10:13:29.927Z,15.03
2018-08-23T10:16:03.698Z,14.60
2018-08-23T10:18:37.395Z,13.23
2018-08-23T10:21:06.023Z,13.13
2018-08-23T10:23:34.400Z,10.90
2018-08-23T10:26:37.761Z,10.23
2018-08-23T10:29:06.187Z,12.33
2018-08-23T10:31:34.641Z,13.57
2018-08-23T10:34:03.039Z,14.20
2018-08-23T10:36:31.520Z,11.43
2018-08-23T10:38:59.933Z,12.63
2018-08-23T10:41:28.357Z,12.23
2018-08-23T10:43:56.766Z,16.80
2018-08-23T10:46:25.155Z,17.40
2018-08-23T10:48:53.530Z,19.10
2018-08-23T10:51:21.993Z,19.80
2018-08-23T10:53:50.396Z,16.93
2018-08-23T10:56:18.888Z,18.83
2018-08-23T10:58:47.312Z,30.80
2018-08-23T11:01:15.733Z,14.07
2018-08-23T11:03:44.161Z,14.17
2018-08-23T11:06:12.580Z,12.53
2018-08-23T11:08:41.115Z,11.57
2018-08-23T11:11:15.009Z,9.50
2018-08-23T11:13:47.555Z,8.27
2018-08-23T11:16:21.372Z,8.80
2018-08-23T11:18:55.324Z,9.67
2018-08-23T11:21:23.678Z,9.63
2018-08-23T11:23:52.113Z,8.80
2018-08-23T11:26:21.928Z,10.10
2018-08-23T11:28:51.905Z,9.97
2018-08-23T11:31:25.806Z,7.73
2018-08-23T11:33:54.532Z,9.30
2018-08-23T11:36:23.191Z,8.80
2018-08-23T11:38:51.632Z,8.57
2018-08-23T11:41:20.229Z,9.20
2018-08-23T11:43:48.853Z,8.27
2018-08-23T11:46:19.000Z,8.40
2018-08-23T11:48:48.082Z,9.60
2018-08-23T11:51:17.598Z,9.23
2018-08-23T11:53:46.513Z,9.53
2018-08-23T11:56:14.893Z,11.20
2018-08-23T11:58:43.700Z,10.87
2018-08-23T12:01:14.601Z,9.60
2018-08-23T12:03:43.376Z,10.10
2018-08-23T12:06:12.960Z,10.53
2018-08-23T12:08:41.624Z,11.90
2018-08-23T12:11:14.343Z,10.43
2018-08-23T12:13:45.866Z,10.37
2018-08-23T12:16:14.259Z,18.43
2018-08-23T12:18:42.673Z,9.83
2018-08-23T12:21:11.103Z,10.43
2018-08-23T12:23:39.463Z,11.30
2018-08-23T12:26:07.932Z,8.63
2018-08-23T12:28:41.660Z,9.70
2018-08-23T12:31:10.142Z,10.00
2018-08-23T12:33:38.611Z,9.13
2018-08-23T12:36:08.729Z,9.53
2018-08-23T12:38:42.644Z,8.97
2018-08-23T12:41:16.340Z,10.13
2018-08-23T12:43:46.451Z,8.27
2018-08-23T12:46:15.423Z,8.03
2018-08-23T12:48:44.032Z,7.97
2018-08-23T12:51:12.447Z,6.60
2018-08-23T12:53:40.803Z,8.13
2018-08-23T12:56:09.508Z,6.37
2018-08-23T12:58:38.014Z,5.93
2018-08-23T13:01:06.528Z,5.67
2018-08-23T13:03:35.069Z,5.80
2018-08-23T13:06:03.509Z,6.63
2018-08-23T13:08:31.836Z,4.47
2018-08-23T13:11:00.289Z,4.70
2018-08-23T13:13:28.694Z,4.27
2018-08-23T13:15:57.085Z,4.60
2018-08-23T13:18:25.533Z,4.60
2018-08-23T13:20:54.021Z,4.53
2018-08-23T13:23:22.374Z,4.50
2018-08-23T13:25:54.635Z,4.73
2018-08-23T13:28:23.459Z,7.03
2018-08-23T13:30:51.990Z,4.77
2018-08-23T13:33:20.355Z,4.27
2018-08-23T13:35:49.138Z,3.80
2018-08-23T13:38:17.685Z,4.03
2018-08-23T13:40:46.084Z,5.00
2018-08-23T13:43:14.402Z,4.40
2018-08-23T13:45:42.853Z,4.00
2018-08-23T13:48:11.279Z,5.53
2018-08-23T13:50:39.666Z,5.27
2018-08-23T13:53:08.127Z,4.40
2018-08-23T13:55:36.586Z,4.30
2018-08-23T13:58:05.157Z,4.40
2018-08-23T14:00:39.755Z,4.93
2018-08-23T14:03:09.000Z,4.10
2018-08-23T14:05:38.298Z,5.00
2018-08-23T14:08:06.922Z,3.60
2018-08-23T14:10:35.467Z,4.17
2018-08-23T14:13:04.447Z,4.10
2018-08-23T14:15:38.238Z,3.93
2018-08-23T14:18:06.717Z,3.73
2018-08-23T14:20:35.121Z,3.60
2018-08-23T14:23:04.513Z,4.53
2018-08-23T14:25:32.955Z,3.90
2018-08-23T14:28:01.356Z,4.83
2018-08-23T14:30:30.034Z,4.83
2018-08-23T14:32:58.467Z,4.13
2018-08-23T14:35:26.884Z,8.80
2018-08-23T14:37:55.227Z,3.83
2018-08-23T14:40:23.656Z,5.30
2018-08-23T14:42:52.259Z,3.93
2018-08-23T14:45:25.895Z,4.60
2018-08-23T14:47:59.679Z,3.50
2018-08-23T14:50:28.004Z,4.60
2018-08-23T14:52:56.778Z,4.20
2018-08-23T14:55:30.762Z,4.13
2018-08-23T14:57:59.150Z,7.27
2018-08-23T15:00:27.579Z,4.37
2018-08-23T15:02:56.133Z,3.90
2018-08-23T15:05:24.582Z,5.73
2018-08-23T15:07:53.042Z,4.17
2018-08-23T15:10:21.505Z,4.70
2018-08-23T15:12:50.060Z,5.03
2018-08-23T15:15:19.268Z,5.20
2018-08-23T15:17:47.721Z,4.73
2018-08-23T15:20:16.206Z,4.37
2018-08-23T15:22:44.603Z,5.73
2018-08-23T15:25:12.981Z,4.90
2018-08-23T15:27:41.462Z,4.90
2018-08-23T15:30:09.887Z,4.83
2018-08-23T15:32:38.358Z,6.00
2018-08-23T15:35:06.867Z,5.87
2018-08-23T15:37:35.279Z,5.03
2018-08-23T15:40:03.719Z,5.63
2018-08-23T15:42:32.300Z,4.63
2018-08-23T15:45:00.810Z,5.50
2018-08-23T15:47:29.223Z,5.03
2018-08-23T15:49:57.656Z,4.73
2018-08-23T15:52:26.019Z,4.23
2018-08-23T15:54:54.517Z,4.27
2018-08-23T15:57:22.850Z,4.70
2018-08-23T15:59:51.286Z,4.67
2018-08-23T16:02:19.657Z,5.07
2018-08-23T16:04:48.130Z,4.20
2018-08-23T16:07:16.631Z,6.97
2018-08-23T16:09:45.162Z,4.90
2018-08-23T16:12:13.579Z,5.07
2018-08-23T16:14:42.031Z,4.17
2018-08-23T16:17:15.709Z,4.50
2018-08-23T16:19:49.512Z,5.80
2018-08-23T16:22:18.013Z,5.20
2018-08-23T16:24:46.455Z,6.97
2018-08-23T16:27:14.779Z,4.57
2018-08-23T16:29:49.571Z,5.30
2018-08-23T16:32:23.244Z,4.47
2018-08-23T16:34:52.292Z,4.10
2018-08-23T16:37:20.719Z,4.67
2018-08-23T16:39:49.194Z,4.67
2018-08-23T16:42:17.608Z,4.53
2018-08-23T16:44:45.995Z,4.30
2018-08-23T16:47:14.465Z,5.13
2018-08-23T16:49:42.861Z,4.93
2018-08-23T16:52:11.283Z,5.00
2018-08-23T16:54:39.715Z,4.60
2018-08-23T16:57:08.777Z,6.03
2018-08-23T16:59:37.460Z,5.37
2018-08-23T17:02:06.175Z,5.63
2018-08-23T17:04:39.953Z,4.67
2018-08-23T17:07:08.378Z,5.10
2018-08-23T17:09:36.826Z,4.47
2018-08-23T17:12:05.312Z,4.47
2018-08-23T17:14:33.739Z,5.60
2018-08-23T17:17:07.470Z,8.00
2018-08-23T17:19:35.923Z,4.90
2018-08-23T17:22:04.440Z,4.70
2018-08-23T17:24:32.937Z,4.47
2018-08-23T17:27:01.272Z,5.00
2018-08-23T17:29:30.060Z,9.43
2018-08-23T17:31:59.021Z,15.40
2018-08-23T17:34:27.607Z,6.53
2018-08-23T17:36:56.132Z,5.37
2018-08-23T17:39:24.552Z,7.80
2018-08-23T17:41:59.409Z,7.03
2018-08-23T17:44:27.907Z,4.77
2018-08-23T17:46:56.375Z,4.97
2018-08-23T17:49:24.882Z,4.90
2018-08-23T17:51:53.299Z,5.33
2018-08-23T17:54:21.870Z,5.23
2018-08-23T17:56:50.464Z,4.80
2018-08-23T17:59:18.866Z,20.70
2018-08-23T18:01:47.321Z,6.70
2018-08-23T18:04:15.770Z,4.93
2018-08-23T18:06:44.304Z,5.70
2018-08-23T18:09:13.710Z,5.20
2018-08-23T18:11:42.531Z,13.30
2018-08-23T18:14:10.984Z,6.13
2018-08-23T18:16:44.836Z,7.20
2018-08-23T18:19:13.377Z,5.60
2018-08-23T18:21:42.636Z,6.03
2018-08-23T18:24:11.252Z,5.00
2018-08-23T18:26:39.920Z,5.87
2018-08-23T18:29:08.425Z,5.23
2018-08-23T18:31:36.927Z,4.77
2018-08-23T18:34:05.465Z,6.17
2018-08-23T18:36:33.864Z,6.73
2018-08-23T18:39:02.264Z,5.33
2018-08-23T18:41:30.717Z,6.17
2018-08-23T18:43:59.076Z,6.30
2018-08-23T18:46:27.462Z,6.57
2018-08-23T18:48:58.088Z,7.20
2018-08-23T18:51:27.498Z,7.67
2018-08-23T18:53:56.587Z,6.37
2018-08-23T18:56:25.032Z,6.30
2018-08-23T18:58:53.752Z,5.20
2018-08-23T19:01:22.552Z,5.73
2018-08-23T19:03:51.055Z,19.93
2018-08-23T19:06:19.512Z,14.13
2018-08-23T19:08:48.095Z,14.83
2018-08-23T19:11:16.506Z,15.60
2018-08-23T19:13:44.989Z,8.87
2018-08-23T19:16:18.863Z,10.20
2018-08-23T19:18:47.344Z,11.87
2018-08-23T19:21:15.825Z,10.10
2018-08-23T19:23:44.346Z,6.20
2018-08-23T19:26:12.821Z,7.53
2018-08-23T19:28:41.282Z,7.40
2018-08-23T19:31:09.932Z,6.53
2018-08-23T19:33:38.336Z,6.33
2018-08-23T19:36:06.966Z,8.27
2018-08-23T19:38:35.582Z,7.10
2018-08-23T19:41:03.977Z,5.67
2018-08-23T19:43:32.547Z,6.67
2018-08-23T19:46:06.412Z,5.80
2018-08-23T19:48:35.854Z,5.00
2018-08-23T19:51:04.295Z,6.20
2018-08-23T19:53:32.829Z,6.73
2018-08-23T19:56:01.262Z,8.77
2018-08-23T19:58:29.757Z,4.97
2018-08-23T20:00:58.237Z,8.70
2018-08-23T20:03:26.638Z,9.17
2018-08-23T20:05:55.077Z,5.27
2018-08-23T20:08:23.576Z,5.20
2018-08-23T20:10:52.251Z,5.80
2018-08-23T20:13:20.645Z,4.60
2018-08-23T20:15:49.147Z,4.97
2018-08-23T20:18:17.571Z,6.20
2018-08-23T20:20:46.679Z,4.93
2018-08-23T20:23:15.405Z,4.73
2018-08-23T20:25:43.924Z,4.80
2018-08-23T20:28:12.397Z,4.40
2018-08-23T20:30:40.855Z,6.33
2018-08-23T20:33:09.408Z,8.17
2018-08-23T20:35:37.946Z,6.43
2018-08-23T20:38:06.502Z,9.43
2018-08-23T20:40:34.887Z,5.73
2018-08-23T20:43:03.300Z,4.97
2018-08-23T20:45:31.755Z,5.60
2018-08-23T20:48:00.126Z,4.73
2018-08-23T20:50:29.639Z,6.50
2018-08-23T20:52:58.503Z,5.50
2018-08-23T20:55:26.942Z,7.80
2018-08-23T20:57:55.876Z,6.10
2018-08-23T21:00:24.304Z,5.67
2018-08-23T21:02:52.899Z,6.10
2018-08-23T21:05:22.283Z,7.53
2018-08-23T21:07:50.779Z,6.03
2018-08-23T21:10:19.262Z,5.40
2018-08-23T21:12:47.701Z,5.40
2018-08-23T21:15:17.620Z,5.40
2018-08-23T21:17:45.975Z,6.33
2018-08-23T21:20:14.718Z,4.97
2018-08-23T21:22:43.067Z,5.80
2018-08-23T21:25:11.685Z,6.53
2018-08-23T21:27:40.059Z,6.83
2018-08-23T21:30:08.538Z,7.70
2018-08-23T21:32:36.925Z,6.23
2018-08-23T21:35:05.386Z,6.00
2018-08-23T21:37:33.697Z,4.87
2018-08-23T21:40:05.008Z,7.53
2018-08-23T21:42:33.529Z,5.53
2018-08-23T21:45:01.821Z,5.13
2018-08-23T21:47:30.166Z,5.73
2018-08-23T21:49:58.539Z,5.00
2018-08-23T21:52:26.931Z,4.37
2018-08-23T21:54:55.422Z,5.20
2018-08-23T21:57:23.862Z,5.17
2018-08-23T21:59:52.310Z,4.50
2018-08-23T22:02:20.659Z,4.93
2018-08-23T22:04:56.570Z,5.57
2018-08-23T22:07:24.957Z,4.30
2018-08-23T22:09:54.495Z,5.43
2018-08-23T22:12:25.386Z,8.20
2018-08-23T22:14:55.283Z,7.13
2018-08-23T22:17:23.926Z,7.30
2018-08-23T22:19:53.013Z,6.23
2018-08-23T22:22:21.372Z,6.17
2018-08-23T22:24:49.846Z,5.43
2018-08-23T22:27:18.297Z,4.93
2018-08-23T22:29:46.685Z,5.87
2018-08-23T22:32:15.426Z,4.83
2018-08-23T22:34:43.830Z,4.90
2018-08-23T22:37:12.201Z,4.87
2018-08-23T22:39:40.688Z,6.20
2018-08-23T22:42:09.040Z,7.80
2018-08-23T22:44:37.450Z,5.27
2018-08-23T22:47:05.834Z,6.27
2018-08-23T22:49:34.213Z,4.80
2018-08-23T22:52:02.654Z,8.43
2018-08-23T22:54:31.054Z,5.47
2018-08-23T22:56:59.461Z,5.50
2018-08-23T22:59:28.410Z,5.77
2018-08-23T23:01:56.952Z,5.47
2018-08-23T23:04:27.620Z,5.60
2018-08-23T23:06:56.963Z,6.17
2018-08-23T23:09:25.370Z,6.03
2018-08-23T23:11:53.831Z,5.53
2018-08-23T23:14:22.804Z,5.37
2018-08-23T23:16:55.323Z,5.80
2018-08-23T23:19:24.648Z,5.63
2018-08-23T23:21:53.032Z,7.83
2018-08-23T23:24:27.390Z,8.70
2018-08-23T23:26:56.883Z,5.87
2018-08-23T23:29:25.783Z,6.23
2018-08-23T23:31:54.649Z,5.37
2018-08-23T23:34:23.005Z,5.77
2018-08-23T23:36:51.433Z,6.27
2018-08-23T23:39:20.590Z,5.40
2018-08-23T23:41:49.217Z,6.50
2018-08-23T23:44:17.722Z,6.30
2018-08-23T23:46:46.047Z,5.83
2018-08-23T23:49:14.549Z,6.03
2018-08-23T23:51:42.921Z,5.80
2018-08-23T23:54:11.382Z,5.77
2018-08-23T23:56:39.802Z,6.30
2018-08-23T23:59:08.250Z,5.47
